Time,TemperatureF,DewpointF,PressureIn,WindDirection,WindDirectionDegrees,WindSpeedMPH,WindSpeedGustMPH,Humidity,HourlyPrecipIn,Conditions,Clouds,dailyrainin,SoftwareType,DateUTC
2013-09-12 00:08:00,6.7,-99.9,29.98,SSW,202,5.0,7.0,-999,0.00,,,0.00,weatherlink.com 1.10,2013-09-12 04:08:00,
2013-09-12 00:23:00,8.1,-99.9,29.97,SSW,201,5.0,7.0,-999,0.00,,,0.00,weatherlink.com 1.10,2013-09-12 04:23:00,
2013-09-12 00:38:00,7.6,-99.9,29.96,SSW,202,3.0,8.0,-999,0.00,,,0.00,weatherlink.com 1.10,2013-09-12 04:38:00,
2013-09-12 00:53:00,7.2,-99.9,29.96,SSW,202,3.0,11.0,-999,0.00,,,0.00,weatherlink.com 1.10,2013-09-12 04:53:00,
2013-09-12 01:08:00,9.5,-99.9,29.96,SW,216,8.0,12.0,-999,0.00,,,0.00,weatherlink.com 1.10,2013-09-12 05:08:00,
2013-09-12 01:23:00,10.0,-99.9,29.95,SSW,207,5.0,9.0,-999,0.00,,,0.00,weatherlink.com 1.10,2013-09-12 05:23:00,
2013-09-12 01:39:00,10.4,-99.9,29.94,SW,214,12.0,14.0,-999,0.00,,,0.00,weatherlink.com 1.10,2013-09-12 05:39:00,
2013-09-12 01:54:00,10.7,-99.9,29.94,SSW,213,7.0,12.0,-999,0.00,,,0.00,weatherlink.com 1.10,2013-09-12 05:54:00,
2013-09-12 02:09:00,10.4,-99.9,29.94,SSW,207,6.0,11.0,-999,0.00,,,0.00,weatherlink.com 1.10,2013-09-12 06:09:00,
2013-09-12 02:24:00,9.9,-99.9,29.93,SSW,202,12.0,18.0,-999,0.00,,,0.00,weatherlink.com 1.10,2013-09-12 06:24:00,
2013-09-12 02:39:00,11.2,-99.9,29.93,SW,217,7.0,14.0,-999,0.00,,,0.00,weatherlink.com 1.10,2013-09-12 06:39:00,
2013-09-12 02:54:00,9.3,-99.9,29.93,WSW,241,12.0,15.0,-999,0.00,,,0.00,weatherlink.com 1.10,2013-09-12 06:54:00,
2013-09-12 03:09:00,9.3,-99.9,29.94,SW,229,11.0,15.0,-999,0.00,,,0.00,weatherlink.com 1.10,2013-09-12 07:09:00,
2013-09-12 03:24:00,9.2,-99.9,29.93,SW,222,10.0,12.0,-999,0.00,,,0.00,weatherlink.com 1.10,2013-09-12 07:24:00,
2013-09-12 03:39:00,10.0,-99.9,29.93,SW,216,11.0,14.0,-999,0.00,,,0.00,weatherlink.com 1.10,2013-09-12 07:39:00,
2013-09-12 03:54:00,9.2,-99.9,29.93,SW,219,7.0,15.0,-999,0.00,,,0.00,weatherlink.com 1.10,2013-09-12 07:54:00,
2013-09-12 04:09:00,9.0,-99.9,29.93,SW,215,6.0,16.0,-999,0.00,,,0.00,weatherlink.com 1.10,2013-09-12 08:09:00,
2013-09-12 04:25:00,9.0,-99.9,29.93,SW,221,11.0,15.0,-999,0.00,,,0.00,weatherlink.com 1.10,2013-09-12 08:25:00,
2013-09-12 04:39:00,9.7,-99.9,29.92,SW,214,11.0,15.0,-999,0.00,,,0.00,weatherlink.com 1.10,2013-09-12 08:39:00,
2013-09-12 04:55:00,11.1,-99.9,29.92,SW,217,10.0,14.0,-999,0.00,,,0.00,weatherlink.com 1.10,2013-09-12 08:55:00,
2013-09-12 05:10:00,8.8,-99.9,29.92,SSW,210,10.0,13.0,-999,0.00,,,0.00,weatherlink.com 1.10,2013-09-12 09:10:00,
2013-09-12 05:25:00,8.6,-99.9,29.91,SW,217,9.0,12.0,-999,0.00,,,0.00,weatherlink.com 1.10,2013-09-12 09:25:00,
2013-09-12 05:40:00,8.4,-99.9,29.91,SW,217,15.0,16.0,-999,0.00,,,0.00,weatherlink.com 1.10,2013-09-12 09:40:00,
2013-09-12 05:55:00,8.6,-99.9,29.92,SW,215,10.0,15.0,-999,0.00,,,0.00,weatherlink.com 1.10,2013-09-12 09:55:00,
2013-09-12 06:10:00,10.4,-99.9,29.92,SSW,213,9.0,14.0,-999,0.00,,,0.00,weatherlink.com 1.10,2013-09-12 10:10:00,
2013-09-12 06:25:00,8.6,-99.9,29.92,SSW,207,7.0,12.0,-999,0.00,,,0.00,weatherlink.com 1.10,2013-09-12 10:25:00,
2013-09-12 06:40:00,7.6,-99.9,29.91,SSW,205,4.0,8.0,-999,0.00,,,0.00,weatherlink.com 1.10,2013-09-12 10:40:00,
2013-09-12 06:55:00,10.4,-99.9,29.92,SSW,207,4.0,9.0,-999,0.00,,,0.00,weatherlink.com 1.10,2013-09-12 10:55:00,
2013-09-12 07:10:00,7.2,-99.9,29.92,SSW,205,4.0,8.0,-999,0.00,,,0.00,weatherlink.com 1.10,2013-09-12 11:10:00,
2013-09-12 07:25:00,10.0,-99.9,29.92,SSW,206,7.0,13.0,-999,0.00,,,0.00,weatherlink.com 1.10,2013-09-12 11:25:00,
2013-09-12 07:40:00,9.5,-99.9,29.92,SW,216,10.0,13.0,-999,0.00,,,0.00,weatherlink.com 1.10,2013-09-12 11:40:00,
2013-09-12 07:55:00,9.9,-99.9,29.91,SSW,213,7.0,12.0,-999,0.00,,,0.00,weatherlink.com 1.10,2013-09-12 11:55:00,
2013-09-12 08:10:00,9.7,-99.9,29.90,SW,217,9.0,13.0,-999,0.00,,,0.00,weatherlink.com 1.10,2013-09-12 12:10:00,
2013-09-12 08:26:00,11.6,-99.9,29.91,SW,217,10.0,14.0,-999,0.00,,,0.00,weatherlink.com 1.10,2013-09-12 12:26:00,
2013-09-12 08:42:00,9.9,-99.9,29.90,SW,215,11.0,15.0,-999,0.00,,,0.00,weatherlink.com 1.10,2013-09-12 12:42:00,
2013-09-12 08:56:00,10.7,-99.9,29.90,SW,221,8.0,15.0,-999,0.00,,,0.00,weatherlink.com 1.10,2013-09-12 12:56:00,
2013-09-12 09:11:00,10.5,-99.9,29.89,SW,225,6.0,14.0,-999,0.00,,,0.00,weatherlink.com 1.10,2013-09-12 13:11:00,
2013-09-12 09:26:00,10.7,-99.9,29.89,SW,215,7.0,13.0,-999,0.00,,,0.00,weatherlink.com 1.10,2013-09-12 13:26:00,
2013-09-12 09:41:00,11.4,-99.9,29.89,SW,218,8.0,12.0,-999,0.00,,,0.00,weatherlink.com 1.10,2013-09-12 13:41:00,
2013-09-12 10:11:00,11.7,-99.9,29.87,South,171,4.0,13.0,-999,0.00,,,0.00,weatherlink.com 1.10,2013-09-12 14:11:00,
2013-09-12 10:26:00,9.3,-99.9,29.87,South,171,4.0,9.0,-999,0.00,,,0.00,weatherlink.com 1.10,2013-09-12 14:26:00,
2013-09-12 10:41:00,8.3,-99.9,29.87,South,177,7.0,10.0,-999,0.00,,,0.00,weatherlink.com 1.10,2013-09-12 14:41:00,
2013-09-12 10:56:00,8.3,-99.9,29.86,South,173,5.0,10.0,-999,0.00,,,0.00,weatherlink.com 1.10,2013-09-12 14:56:00,
2013-09-12 11:11:00,9.2,-99.9,29.86,South,179,14.0,14.0,-999,0.00,,,0.00,weatherlink.com 1.10,2013-09-12 15:11:00,
2013-09-12 11:26:00,7.2,-99.9,29.85,South,171,7.0,15.0,-999,0.00,,,0.00,weatherlink.com 1.10,2013-09-12 15:26:00,
2013-09-12 11:41:00,7.0,-99.9,29.84,South,187,14.0,16.0,-999,0.00,,,0.00,weatherlink.com 1.10,2013-09-12 15:41:00,
2013-09-12 11:57:00,8.8,-99.9,29.84,SSE,164,11.0,20.0,-999,0.00,,,0.00,weatherlink.com 1.10,2013-09-12 15:57:00,
2013-09-12 12:12:00,7.6,-99.9,29.84,SSE,160,11.0,21.0,-999,0.00,,,0.00,weatherlink.com 1.10,2013-09-12 16:12:00,
2013-09-12 12:27:00,7.7,-99.9,29.83,South,173,11.0,18.0,-999,0.00,,,0.00,weatherlink.com 1.10,2013-09-12 16:27:00,
2013-09-12 12:42:00,9.3,-99.9,29.83,SE,143,10.0,18.0,-999,0.00,,,0.00,weatherlink.com 1.10,2013-09-12 16:42:00,
2013-09-12 12:57:00,8.3,-99.9,29.82,SSE,162,13.0,19.0,-999,0.00,,,0.00,weatherlink.com 1.10,2013-09-12 16:57:00,
2013-09-12 13:12:00,9.0,-99.9,29.81,South,175,10.0,22.0,-999,0.00,,,0.00,weatherlink.com 1.10,2013-09-12 17:12:00,
2013-09-12 13:27:00,9.2,-99.9,29.80,SSE,148,14.0,22.0,-999,0.00,,,0.00,weatherlink.com 1.10,2013-09-12 17:27:00,
2013-09-12 13:42:00,10.4,-99.9,29.79,SSE,165,10.0,21.0,-999,0.00,,,0.00,weatherlink.com 1.10,2013-09-12 17:42:00,
2013-09-12 13:57:00,11.9,-99.9,29.79,South,178,14.0,24.0,-999,0.00,,,0.00,weatherlink.com 1.10,2013-09-12 17:57:00,
2013-09-12 14:12:00,20.2,-99.9,29.78,SSW,196,11.0,19.0,-999,0.00,,,0.00,weatherlink.com 1.10,2013-09-12 18:12:00,
2013-09-12 14:27:00,9.7,-99.9,29.78,South,171,11.0,22.0,-999,0.00,,,0.00,weatherlink.com 1.10,2013-09-12 18:27:00,
2013-09-12 14:42:00,7.9,-99.9,29.77,South,188,12.0,19.0,-999,0.00,,,0.00,weatherlink.com 1.10,2013-09-12 18:42:00,
2013-09-12 14:57:00,7.0,-99.9,29.76,South,173,10.0,19.0,-999,0.00,,,0.00,weatherlink.com 1.10,2013-09-12 18:57:00,
2013-09-12 15:13:00,7.6,-99.9,29.75,SSE,163,10.0,21.0,-999,0.00,,,0.00,weatherlink.com 1.10,2013-09-12 19:13:00,
2013-09-12 15:28:00,7.4,-99.9,29.75,South,173,13.0,23.0,-999,0.00,,,0.00,weatherlink.com 1.10,2013-09-12 19:28:00,
2013-09-12 15:43:00,7.4,-99.9,29.74,SSE,155,10.0,25.0,-999,0.00,,,0.00,weatherlink.com 1.10,2013-09-12 19:43:00,
2013-09-12 15:58:00,7.4,-99.9,29.73,South,169,11.0,22.0,-999,0.00,,,0.00,weatherlink.com 1.10,2013-09-12 19:58:00,
2013-09-12 16:13:00,7.4,-99.9,29.73,SSE,161,15.0,24.0,-999,0.00,,,0.00,weatherlink.com 1.10,2013-09-12 20:13:00,
2013-09-12 16:28:00,8.6,-99.9,29.71,South,176,12.0,21.0,-999,0.00,,,0.00,weatherlink.com 1.10,2013-09-12 20:28:00,
2013-09-12 16:58:00,9.9,-99.9,29.70,SSE,165,14.0,25.0,-999,0.00,,,0.00,weatherlink.com 1.10,2013-09-12 20:58:00,
2013-09-12 17:13:00,10.5,-99.9,29.69,SSE,159,10.0,25.0,-999,0.00,,,0.00,weatherlink.com 1.10,2013-09-12 21:13:00,
2013-09-12 17:28:00,11.6,-99.9,29.69,SSW,213,20.0,33.0,-999,0.00,,,0.00,weatherlink.com 1.10,2013-09-12 21:28:00,
2013-09-12 17:43:00,11.9,-99.9,29.68,South,175,8.0,26.0,-999,0.00,,,0.00,weatherlink.com 1.10,2013-09-12 21:43:00,
2013-09-12 17:58:00,11.9,-99.9,29.70,South,185,16.0,24.0,-999,0.00,,,0.00,weatherlink.com 1.10,2013-09-12 21:58:00,
2013-09-12 18:13:00,11.7,-99.9,29.71,SSW,204,8.0,22.0,-999,0.00,,,0.00,weatherlink.com 1.10,2013-09-12 22:13:00,
2013-09-12 18:28:00,11.2,-99.9,29.69,SSW,192,12.0,17.0,-999,0.00,,,0.00,weatherlink.com 1.10,2013-09-12 22:28:00,
2013-09-12 18:44:00,10.5,-99.9,29.69,South,170,8.0,17.0,-999,0.00,,,0.00,weatherlink.com 1.10,2013-09-12 22:44:00,
2013-09-12 18:59:00,10.9,-99.9,29.68,South,190,7.0,20.0,-999,0.00,,,0.00,weatherlink.com 1.10,2013-09-12 22:59:00,
2013-09-12 19:14:00,11.4,-99.9,29.69,South,174,11.0,21.0,-999,0.00,,,0.00,weatherlink.com 1.10,2013-09-12 23:14:00,
2013-09-12 19:29:00,11.9,-99.9,29.68,SSW,198,17.0,20.0,-999,0.00,,,0.00,weatherlink.com 1.10,2013-09-12 23:29:00,
2013-09-12 19:44:00,12.8,-99.9,29.70,SSW,213,14.0,23.0,-999,0.00,,,0.00,weatherlink.com 1.10,2013-09-12 23:44:00,
2013-09-12 19:59:00,10.9,-99.9,29.71,SW,223,16.0,21.0,-999,0.00,,,0.00,weatherlink.com 1.10,2013-09-12 23:59:00,
2013-09-12 20:14:00,11.2,-99.9,29.72,SW,232,15.0,23.0,-999,0.00,,,0.00,weatherlink.com 1.10,2013-09-13 00:14:00,
2013-09-12 20:29:00,10.5,-99.9,29.72,WSW,243,13.0,22.0,-999,0.00,,,0.00,weatherlink.com 1.10,2013-09-13 00:29:00,
2013-09-12 20:44:00,9.9,-99.9,29.71,WSW,250,10.0,16.0,-999,0.00,,,0.00,weatherlink.com 1.10,2013-09-13 00:44:00,
2013-09-12 20:59:00,9.9,-99.9,29.71,WSW,250,8.0,10.0,-999,0.00,,,0.00,weatherlink.com 1.10,2013-09-13 00:59:00,
2013-09-12 21:14:00,9.2,-99.9,29.71,West,269,5.0,9.0,-999,0.00,,,0.00,weatherlink.com 1.10,2013-09-13 01:14:00,
2013-09-12 21:29:00,8.3,-99.9,29.70,West,269,5.0,8.0,-999,0.00,,,0.00,weatherlink.com 1.10,2013-09-13 01:29:00,
2013-09-12 21:44:00,9.0,-99.9,29.70,West,269,1.0,3.0,-999,0.00,,,0.00,weatherlink.com 1.10,2013-09-13 01:44:00,
2013-09-12 21:59:00,7.4,-99.9,29.70,West,269,3.0,6.0,-999,0.00,,,0.00,weatherlink.com 1.10,2013-09-13 01:59:00,
2013-09-12 22:15:00,7.4,-99.9,29.70,West,269,3.0,5.0,-999,0.00,,,0.00,weatherlink.com 1.10,2013-09-13 02:15:00,
2013-09-12 22:30:00,7.4,-99.9,29.70,West,269,3.0,5.0,-999,0.00,,,0.00,weatherlink.com 1.10,2013-09-13 02:30:00,
2013-09-12 22:45:00,6.7,-99.9,29.69,West,269,4.0,5.0,-999,0.00,,,0.00,weatherlink.com 1.10,2013-09-13 02:45:00,
2013-09-12 23:00:00,6.3,-99.9,29.69,West,269,4.0,7.0,-999,0.00,,,0.00,weatherlink.com 1.10,2013-09-13 03:00:00,
2013-09-12 23:15:00,7.2,-99.9,29.69,West,269,4.0,7.0,-999,0.00,,,0.00,weatherlink.com 1.10,2013-09-13 03:15:00,
2013-09-12 23:30:00,6.0,-99.9,29.68,West,269,6.0,8.0,-999,0.00,,,0.00,weatherlink.com 1.10,2013-09-13 03:30:00,
2013-09-12 23:45:00,6.0,-99.9,29.68,West,269,8.0,9.0,-999,0.00,,,0.00,weatherlink.com 1.10,2013-09-13 03:45:00,